Portada
METAR-TAF:

METAR-TAF

Aeroports :

Kaneohe, Hawaii, Estats Units d'Amèrica

latitud: 21-27-14N, longitud: 157-45-56W, altitud: 5 m

Observació

L'informe es va fer fa 26 minuts, a les 10:57 UTC
Vent 3 kt del Sud
Temperatura 27°C
Humitat 74%
Pressió 1011 hPa
Visibilitat: 16.1 km
Núvols disperses a una alçada de 6500 ft

METAR: PHNG 231057Z 19003KT 10SM SCT065 27/22 A2986 RMK AO2 SLP107 T02670222

Hora: 01:23 (11:23 UTC)

Pronòstic

Pronòstic vàlid del 23 a les 09 UTC al 24 a les 09 UTC
Vent 5 kt amb direcció variable
Visibilitat 10 km o més
Cel ennuvolat a una alçada de 5000 ft
Temporalment
l' 23 a les 09 UTC al 23 a les 15 UTC
Vent 5 kt del Sud-Est
Visibilitat: 8000 m
Cel ennuvolat a una alçada de 2500 ft
xàfecs de pluja

TAF: PHNG 2309/2409 VRB05KT 9999 SCTO030 BKN050 QNH2982INS TEMPO 2309/2315 14005KT 8000 -SHRA BKN025 T23/2313Z T30/2323Z

Observacions i pronòstics meteorològics de més de 4000 aeroports (METAR i TAF).

Les estacions disponibles són els punts grocs i vermells al mapa.

Posi el ratolí al punt desitjat per veure el nom de l'estació.

Feu clic per veure les observacions i els pronòstics meteorològics.

Per canviar el mapa: feu clic els botons verds amb una creu de color negre per apropar; al botó verd amb un guió per allunyar la imatge; o en les fletxes verdes per a mapes adjacents.


METAR-TAF: